sensor_id;sensor_type;location;lat;lon;timestamp;temperature;humidity
9265;DHT22;4669;49.594;10.958;2023-08-07T04:30:03;12.10;99.90
9265;DHT22;4669;49.594;10.958;2023-08-07T04:35:06;12.10;99.90
9265;DHT22;4669;49.594;10.958;2023-08-07T04:40:09;12.00;99.90
9265;DHT22;4669;49.594;10.958;2023-08-07T04:45:13;12.10;99.90
9265;DHT22;4669;49.594;10.958;2023-08-07T04:50:15;12.00;99.90
9265;DHT22;4669;49.594;10.958;2023-08-07T04:55:16;12.00;99.90
9265;DHT22;4669;49.594;10.958;2023-08-07T05:00:20;12.00;99.90
9265;DHT22;4669;49.594;10.958;2023-08-07T05:05:22;12.00;99.90
9265;DHT22;4669;49.594;10.958;2023-08-07T05:10:24;12.00;99.90
9265;DHT22;4669;49.594;10.958;2023-08-07T05:15:27;12.00;99.90
9265;DHT22;4669;49.594;10.958;2023-08-07T05:20:31;12.00;99.90
9265;DHT22;4669;49.594;10.958;2023-08-07T05:25:33;12.00;99.90
9265;DHT22;4669;49.594;10.958;2023-08-07T05:30:36;11.90;99.90
9265;DHT22;4669;49.594;10.958;2023-08-07T05:35:38;11.90;99.90
9265;DHT22;4669;49.594;10.958;2023-08-07T05:40:40;12.00;99.90
9265;DHT22;4669;49.594;10.958;2023-08-07T05:45:44;12.00;99.90
9265;DHT22;4669;49.594;10.958;2023-08-07T05:50:46;12.10;99.90
9265;DHT22;4669;49.594;10.958;2023-08-07T05:55:48;12.10;99.90
9265;DHT22;4669;49.594;10.958;2023-08-07T06:00:51;12.00;99.90
9265;DHT22;4669;49.594;10.958;2023-08-07T06:05:53;12.00;99.90
9265;DHT22;4669;49.594;10.958;2023-08-07T06:10:55;11.90;99.90
9265;DHT22;4669;49.594;10.958;2023-08-07T06:15:58;11.90;99.90
9265;DHT22;4669;49.594;10.958;2023-08-07T06:21:00;11.90;99.90
9265;DHT22;4669;49.594;10.958;2023-08-07T06:26:02;12.00;99.90
9265;DHT22;4669;49.594;10.958;2023-08-07T06:31:07;11.90;99.90
9265;DHT22;4669;49.594;10.958;2023-08-07T06:36:09;12.00;99.90
9265;DHT22;4669;49.594;10.958;2023-08-07T06:41:11;12.00;99.90
9265;DHT22;4669;49.594;10.958;2023-08-07T06:46:15;12.00;99.90
9265;DHT22;4669;49.594;10.958;2023-08-07T06:51:17;12.10;99.90
9265;DHT22;4669;49.594;10.958;2023-08-07T06:56:18;12.10;99.90
9265;DHT22;4669;49.594;10.958;2023-08-07T07:01:22;12.10;99.90
9265;DHT22;4669;49.594;10.958;2023-08-07T07:06:24;12.20;99.90
9265;DHT22;4669;49.594;10.958;2023-08-07T07:11:26;12.10;99.90
9265;DHT22;4669;49.594;10.958;2023-08-07T07:16:29;12.20;99.90
9265;DHT22;4669;49.594;10.958;2023-08-07T07:21:32;12.30;99.90
9265;DHT22;4669;49.594;10.958;2023-08-07T07:26:34;12.30;99.90
9265;DHT22;4669;49.594;10.958;2023-08-07T07:31:38;12.40;99.90
9265;DHT22;4669;49.594;10.958;2023-08-07T07:36:40;12.40;99.90
9265;DHT22;4669;49.594;10.958;2023-08-07T07:41:41;12.40;99.90
9265;DHT22;4669;49.594;10.958;2023-08-07T07:46:45;12.40;99.90
9265;DHT22;4669;49.594;10.958;2023-08-07T07:51:47;12.40;99.90
9265;DHT22;4669;49.594;10.958;2023-08-07T07:56:50;12.50;99.90
9265;DHT22;4669;49.594;10.958;2023-08-07T08:01:53;12.50;99.90
9265;DHT22;4669;49.594;10.958;2023-08-07T08:06:55;12.40;99.90
9265;DHT22;4669;49.594;10.958;2023-08-07T08:11:56;12.40;99.90
9265;DHT22;4669;49.594;10.958;2023-08-07T08:17:00;12.40;99.90
9265;DHT22;4669;49.594;10.958;2023-08-07T08:22:01;12.40;99.90
9265;DHT22;4669;49.594;10.958;2023-08-07T08:27:04;12.40;99.90
9265;DHT22;4669;49.594;10.958;2023-08-07T08:32:07;12.40;99.90
9265;DHT22;4669;49.594;10.958;2023-08-07T08:37:09;12.40;99.90
9265;DHT22;4669;49.594;10.958;2023-08-07T08:42:12;12.30;99.90
9265;DHT22;4669;49.594;10.958;2023-08-07T08:47:16;12.30;99.90
9265;DHT22;4669;49.594;10.958;2023-08-07T08:52:19;12.30;99.90
9265;DHT22;4669;49.594;10.958;2023-08-07T08:57:21;12.40;99.90
9265;DHT22;4669;49.594;10.958;2023-08-07T09:02:25;12.40;99.90
9265;DHT22;4669;49.594;10.958;2023-08-07T09:07:28;12.50;99.90
9265;DHT22;4669;49.594;10.958;2023-08-07T09:12:32;12.60;99.90
9265;DHT22;4669;49.594;10.958;2023-08-07T09:17:39;12.70;99.90
9265;DHT22;4669;49.594;10.958;2023-08-07T09:22:42;12.70;99.90
9265;DHT22;4669;49.594;10.958;2023-08-07T09:27:44;12.70;99.90
9265;DHT22;4669;49.594;10.958;2023-08-07T09:32:48;12.70;99.90
9265;DHT22;4669;49.594;10.958;2023-08-07T09:37:50;12.70;99.90
9265;DHT22;4669;49.594;10.958;2023-08-07T09:42:53;12.70;99.90
9265;DHT22;4669;49.594;10.958;2023-08-07T09:48:00;12.80;99.90
9265;DHT22;4669;49.594;10.958;2023-08-07T09:53:02;12.80;99.90
9265;DHT22;4669;49.594;10.958;2023-08-07T09:58:07;12.80;99.90
9265;DHT22;4669;49.594;10.958;2023-08-07T10:03:11;13.00;99.90
9265;DHT22;4669;49.594;10.958;2023-08-07T10:08:13;13.10;99.90
9265;DHT22;4669;49.594;10.958;2023-08-07T10:13:15;13.10;99.90
9265;DHT22;4669;49.594;10.958;2023-08-07T10:18:18;13.20;99.90
9265;DHT22;4669;49.594;10.958;2023-08-07T10:23:22;13.30;99.90
9265;DHT22;4669;49.594;10.958;2023-08-07T10:28:24;13.40;99.90
9265;DHT22;4669;49.594;10.958;2023-08-07T10:33:28;13.40;99.90
9265;DHT22;4669;49.594;10.958;2023-08-07T10:38:30;13.40;99.90
9265;DHT22;4669;49.594;10.958;2023-08-07T10:43:36;13.40;99.90
9265;DHT22;4669;49.594;10.958;2023-08-07T10:48:41;13.60;99.90
9265;DHT22;4669;49.594;10.958;2023-08-07T10:53:44;13.70;99.90
9265;DHT22;4669;49.594;10.958;2023-08-07T10:58:50;13.90;99.90
9265;DHT22;4669;49.594;10.958;2023-08-07T11:03:55;13.90;99.90
9265;DHT22;4669;49.594;10.958;2023-08-07T11:08:57;13.80;99.90
9265;DHT22;4669;49.594;10.958;2023-08-07T11:13:59;13.70;99.90
9265;DHT22;4669;49.594;10.958;2023-08-07T11:19:03;13.80;99.90
9265;DHT22;4669;49.594;10.958;2023-08-07T11:24:05;13.90;99.90
9265;DHT22;4669;49.594;10.958;2023-08-07T11:29:06;14.00;99.90
9265;DHT22;4669;49.594;10.958;2023-08-07T11:34:11;14.00;99.90
9265;DHT22;4669;49.594;10.958;2023-08-07T11:39:13;14.00;99.90
9265;DHT22;4669;49.594;10.958;2023-08-07T11:44:17;14.00;99.90
9265;DHT22;4669;49.594;10.958;2023-08-07T11:49:20;13.90;99.90
9265;DHT22;4669;49.594;10.958;2023-08-07T11:54:23;13.90;99.90
9265;DHT22;4669;49.594;10.958;2023-08-07T11:59:26;13.90;99.90
9265;DHT22;4669;49.594;10.958;2023-08-07T12:04:31;13.80;99.90
9265;DHT22;4669;49.594;10.958;2023-08-07T12:09:37;14.00;99.90
9265;DHT22;4669;49.594;10.958;2023-08-07T12:14:39;13.90;99.90
9265;DHT22;4669;49.594;10.958;2023-08-07T12:19:42;13.90;99.90
9265;DHT22;4669;49.594;10.958;2023-08-07T12:24:46;13.90;99.90
9265;DHT22;4669;49.594;10.958;2023-08-07T12:29:48;13.80;99.90
9265;DHT22;4669;49.594;10.958;2023-08-07T12:34:51;13.80;99.90
9265;DHT22;4669;49.594;10.958;2023-08-07T12:39:54;13.70;99.90
9265;DHT22;4669;49.594;10.958;2023-08-07T12:44:56;13.60;99.90
9265;DHT22;4669;49.594;10.958;2023-08-07T12:50:00;13.60;99.90
9265;DHT22;4669;49.594;10.958;2023-08-07T12:55:02;13.60;99.90
9265;DHT22;4669;49.594;10.958;2023-08-07T13:00:05;13.60;99.90
9265;DHT22;4669;49.594;10.958;2023-08-07T13:05:10;13.50;99.90
9265;DHT22;4669;49.594;10.958;2023-08-07T13:10:15;13.40;99.90
9265;DHT22;4669;49.594;10.958;2023-08-07T13:15:18;13.50;99.90
9265;DHT22;4669;49.594;10.958;2023-08-07T13:20:21;13.50;99.90
9265;DHT22;4669;49.594;10.958;2023-08-07T13:25:23;13.50;99.90
9265;DHT22;4669;49.594;10.958;2023-08-07T13:30:24;13.50;99.90
9265;DHT22;4669;49.594;10.958;2023-08-07T13:35:28;13.60;99.90
9265;DHT22;4669;49.594;10.958;2023-08-07T13:40:30;13.60;99.90
9265;DHT22;4669;49.594;10.958;2023-08-07T13:45:32;13.60;99.90
9265;DHT22;4669;49.594;10.958;2023-08-07T13:50:35;13.70;99.90
9265;DHT22;4669;49.594;10.958;2023-08-07T13:55:38;13.70;99.90
9265;DHT22;4669;49.594;10.958;2023-08-07T14:00:41;13.70;99.90
9265;DHT22;4669;49.594;10.958;2023-08-07T14:05:44;13.70;99.90
9265;DHT22;4669;49.594;10.958;2023-08-07T14:10:46;13.60;99.90
9265;DHT22;4669;49.594;10.958;2023-08-07T14:15:48;13.50;99.90
9265;DHT22;4669;49.594;10.958;2023-08-07T14:20:51;13.70;99.90
9265;DHT22;4669;49.594;10.958;2023-08-07T14:25:53;13.70;99.90
9265;DHT22;4669;49.594;10.958;2023-08-07T14:30:57;13.60;99.90
9265;DHT22;4669;49.594;10.958;2023-08-07T14:36:01;13.70;99.90
9265;DHT22;4669;49.594;10.958;2023-08-07T14:41:03;13.70;99.90
9265;DHT22;4669;49.594;10.958;2023-08-07T14:46:05;13.70;99.90
9265;DHT22;4669;49.594;10.958;2023-08-07T14:51:08;13.90;99.90
9265;DHT22;4669;49.594;10.958;2023-08-07T14:56:10;13.90;99.90
9265;DHT22;4669;49.594;10.958;2023-08-07T15:01:12;13.90;99.90
9265;DHT22;4669;49.594;10.958;2023-08-07T15:06:15;14.00;99.90
9265;DHT22;4669;49.594;10.958;2023-08-07T15:11:17;14.30;99.90
9265;DHT22;4669;49.594;10.958;2023-08-07T15:16:18;14.40;99.90
9265;DHT22;4669;49.594;10.958;2023-08-07T15:21:22;14.50;99.90
9265;DHT22;4669;49.594;10.958;2023-08-07T15:26:24;14.50;99.90
9265;DHT22;4669;49.594;10.958;2023-08-07T15:31:26;14.50;99.90
9265;DHT22;4669;49.594;10.958;2023-08-07T15:36:29;14.60;99.90
9265;DHT22;4669;49.594;10.958;2023-08-07T15:41:31;15.00;99.90
9265;DHT22;4669;49.594;10.958;2023-08-07T15:46:32;15.70;99.90
9265;DHT22;4669;49.594;10.958;2023-08-07T15:51:36;16.50;99.90
9265;DHT22;4669;49.594;10.958;2023-08-07T15:56:37;16.80;99.90
9265;DHT22;4669;49.594;10.958;2023-08-07T16:01:39;16.20;99.90
9265;DHT22;4669;49.594;10.958;2023-08-07T16:06:43;16.60;99.90
9265;DHT22;4669;49.594;10.958;2023-08-07T16:11:46;19.00;99.90
9265;DHT22;4669;49.594;10.958;2023-08-07T16:16:49;20.90;99.80
9265;DHT22;4669;49.594;10.958;2023-08-07T16:21:53;21.80;97.80
9265;DHT22;4669;49.594;10.958;2023-08-07T16:26:55;21.50;97.10
9265;DHT22;4669;49.594;10.958;2023-08-07T16:31:58;19.70;98.50
9265;DHT22;4669;49.594;10.958;2023-08-07T16:37:06;18.60;99.90
9265;DHT22;4669;49.594;10.958;2023-08-07T16:42:08;17.80;99.90
9265;DHT22;4669;49.594;10.958;2023-08-07T16:47:10;17.30;99.90
9265;DHT22;4669;49.594;10.958;2023-08-07T16:52:14;17.30;99.90
9265;DHT22;4669;49.594;10.958;2023-08-07T16:57:16;17.20;99.90
9265;DHT22;4669;49.594;10.958;2023-08-07T17:02:18;17.30;99.90
9265;DHT22;4669;49.594;10.958;2023-08-07T17:07:23;17.30;99.90
9265;DHT22;4669;49.594;10.958;2023-08-07T17:12:25;17.30;99.90
9265;DHT22;4669;49.594;10.958;2023-08-07T17:17:27;17.20;99.90
9265;DHT22;4669;49.594;10.958;2023-08-07T17:22:30;17.10;99.90
9265;DHT22;4669;49.594;10.958;2023-08-07T17:27:32;16.90;99.90
9265;DHT22;4669;49.594;10.958;2023-08-07T17:32:34;16.90;99.90
9265;DHT22;4669;49.594;10.958;2023-08-07T17:37:38;17.00;99.90
9265;DHT22;4669;49.594;10.958;2023-08-07T17:42:40;16.90;99.90
9265;DHT22;4669;49.594;10.958;2023-08-07T17:47:42;16.80;99.90
9265;DHT22;4669;49.594;10.958;2023-08-07T17:52:45;16.80;99.90
9265;DHT22;4669;49.594;10.958;2023-08-07T17:57:47;16.80;99.90
9265;DHT22;4669;49.594;10.958;2023-08-07T18:02:49;16.80;99.90
9265;DHT22;4669;49.594;10.958;2023-08-07T18:07:52;16.70;99.90
9265;DHT22;4669;49.594;10.958;2023-08-07T18:12:54;16.40;99.90
9265;DHT22;4669;49.594;10.958;2023-08-07T18:17:56;16.20;99.90
9265;DHT22;4669;49.594;10.958;2023-08-07T18:22:59;15.90;99.90
9265;DHT22;4669;49.594;10.958;2023-08-07T18:28:01;15.70;99.90
9265;DHT22;4669;49.594;10.958;2023-08-07T18:33:03;15.60;99.90
9265;DHT22;4669;49.594;10.958;2023-08-07T18:38:06;15.40;99.90
9265;DHT22;4669;49.594;10.958;2023-08-07T18:43:09;15.30;99.90
9265;DHT22;4669;49.594;10.958;2023-08-07T18:48:11;15.10;99.90
9265;DHT22;4669;49.594;10.958;2023-08-07T18:53:14;15.00;99.90
9265;DHT22;4669;49.594;10.958;2023-08-07T18:58:16;14.90;99.90
9265;DHT22;4669;49.594;10.958;2023-08-07T19:03:18;14.80;99.90
9265;DHT22;4669;49.594;10.958;2023-08-07T19:08:21;14.80;99.90
9265;DHT22;4669;49.594;10.958;2023-08-07T19:13:23;14.70;99.90
9265;DHT22;4669;49.594;10.958;2023-08-07T19:18:25;14.60;99.90
9265;DHT22;4669;49.594;10.958;2023-08-07T19:23:29;14.60;99.90
9265;DHT22;4669;49.594;10.958;2023-08-07T19:28:32;14.50;99.90
9265;DHT22;4669;49.594;10.958;2023-08-07T19:33:34;14.50;99.90
9265;DHT22;4669;49.594;10.958;2023-08-07T19:38:37;14.40;99.90
9265;DHT22;4669;49.594;10.958;2023-08-07T19:43:39;14.40;99.90
9265;DHT22;4669;49.594;10.958;2023-08-07T19:48:42;14.30;99.90
9265;DHT22;4669;49.594;10.958;2023-08-07T19:53:45;14.40;99.90
9265;DHT22;4669;49.594;10.958;2023-08-07T19:58:47;14.30;99.90
9265;DHT22;4669;49.594;10.958;2023-08-07T20:03:49;14.30;99.90
9265;DHT22;4669;49.594;10.958;2023-08-07T20:08:52;14.30;99.90
9265;DHT22;4669;49.594;10.958;2023-08-07T20:13:54;13.70;99.90
9265;DHT22;4669;49.594;10.958;2023-08-07T20:18:56;13.50;99.90
9265;DHT22;4669;49.594;10.958;2023-08-07T20:24:00;13.30;99.90
9265;DHT22;4669;49.594;10.958;2023-08-07T20:29:02;13.10;99.90
9265;DHT22;4669;49.594;10.958;2023-08-07T20:34:04;13.20;99.90
9265;DHT22;4669;49.594;10.958;2023-08-07T20:39:08;13.20;99.90
9265;DHT22;4669;49.594;10.958;2023-08-07T20:44:10;13.10;99.90
9265;DHT22;4669;49.594;10.958;2023-08-07T20:49:12;13.20;99.90
9265;DHT22;4669;49.594;10.958;2023-08-07T20:54:15;13.20;99.90
9265;DHT22;4669;49.594;10.958;2023-08-07T20:59:17;13.20;99.90
9265;DHT22;4669;49.594;10.958;2023-08-07T21:04:18;13.20;99.90
9265;DHT22;4669;49.594;10.958;2023-08-07T21:09:22;13.20;99.90
9265;DHT22;4669;49.594;10.958;2023-08-07T21:14:24;13.30;99.90
9265;DHT22;4669;49.594;10.958;2023-08-07T21:19:25;13.30;99.90
9265;DHT22;4669;49.594;10.958;2023-08-07T21:24:30;13.10;99.90
9265;DHT22;4669;49.594;10.958;2023-08-07T21:29:32;13.10;99.90
9265;DHT22;4669;49.594;10.958;2023-08-07T21:34:33;13.10;99.90
9265;DHT22;4669;49.594;10.958;2023-08-07T21:39:37;13.10;99.90
9265;DHT22;4669;49.594;10.958;2023-08-07T21:44:39;12.90;99.90
9265;DHT22;4669;49.594;10.958;2023-08-07T21:49:41;13.00;99.90
9265;DHT22;4669;49.594;10.958;2023-08-07T21:54:44;12.90;99.90
9265;DHT22;4669;49.594;10.958;2023-08-07T21:59:46;12.90;99.90
